createdAt,value
2022-07-26T00:00:13.899Z,20.10
2022-07-26T00:02:47.706Z,20.10
2022-07-26T00:05:18.785Z,20.10
2022-07-26T00:07:46.640Z,20.10
2022-07-26T00:10:13.988Z,20.10
2022-07-26T00:12:41.089Z,20.10
2022-07-26T00:15:10.875Z,20.10
2022-07-26T00:17:38.524Z,20.10
2022-07-26T00:20:06.107Z,20.00
2022-07-26T00:22:35.641Z,20.00
2022-07-26T00:25:05.360Z,19.90
2022-07-26T00:27:32.389Z,19.80
2022-07-26T00:29:59.308Z,19.80
2022-07-26T00:32:26.237Z,19.80
2022-07-26T00:34:53.113Z,19.80
2022-07-26T00:37:21.138Z,19.70
2022-07-26T00:39:48.759Z,19.70
2022-07-26T00:42:16.092Z,19.60
2022-07-26T00:44:45.193Z,19.60
2022-07-26T00:47:12.927Z,19.50
2022-07-26T00:49:40.012Z,19.40
2022-07-26T00:52:08.529Z,19.40
2022-07-26T00:54:36.498Z,19.40
2022-07-26T00:57:03.731Z,19.40
2022-07-26T00:59:30.795Z,19.40
2022-07-26T01:01:58.065Z,19.30
2022-07-26T01:04:24.977Z,19.30
2022-07-26T01:06:52.019Z,19.20
2022-07-26T01:09:19.569Z,19.10
2022-07-26T01:11:46.287Z,19.00
2022-07-26T01:14:13.088Z,19.00
2022-07-26T01:16:39.899Z,19.00
2022-07-26T01:19:06.880Z,19.10
2022-07-26T01:21:34.188Z,18.90
2022-07-26T01:24:01.116Z,18.80
2022-07-26T01:26:27.963Z,18.90
2022-07-26T01:28:54.705Z,18.90
2022-07-26T01:31:21.600Z,18.80
2022-07-26T01:33:48.882Z,18.80
2022-07-26T01:36:16.218Z,18.80
2022-07-26T01:38:43.524Z,18.80
2022-07-26T01:41:10.483Z,18.70
2022-07-26T01:43:37.556Z,18.70
2022-07-26T01:46:05.986Z,18.70
2022-07-26T01:48:32.968Z,18.60
2022-07-26T01:51:00.254Z,18.50
2022-07-26T01:53:27.038Z,18.50
2022-07-26T01:55:53.871Z,18.50
2022-07-26T01:58:20.694Z,18.50
2022-07-26T02:00:48.088Z,18.50
2022-07-26T02:03:14.990Z,18.50
2022-07-26T02:05:41.754Z,18.50
2022-07-26T02:08:08.550Z,18.40
2022-07-26T02:10:55.356Z,18.40
2022-07-26T02:13:22.298Z,18.50
2022-07-26T02:15:49.083Z,18.60
2022-07-26T02:18:15.873Z,18.60
2022-07-26T02:20:42.586Z,18.60
2022-07-26T02:23:09.336Z,18.70
2022-07-26T02:25:36.065Z,18.60
2022-07-26T02:28:03.262Z,18.80
2022-07-26T02:30:29.980Z,18.80
2022-07-26T02:32:56.727Z,18.80
2022-07-26T02:35:23.621Z,18.80
2022-07-26T02:37:50.318Z,18.80
2022-07-26T02:40:19.306Z,18.80
2022-07-26T02:42:46.621Z,18.80
2022-07-26T02:45:13.320Z,18.80
2022-07-26T02:47:50.725Z,18.80
2022-07-26T02:50:18.859Z,18.80
2022-07-26T02:52:47.982Z,18.70
2022-07-26T02:55:16.307Z,18.70
2022-07-26T02:57:46.418Z,18.70
2022-07-26T03:00:19.065Z,18.60
2022-07-26T03:02:46.394Z,18.50
2022-07-26T03:05:13.187Z,18.40
2022-07-26T03:07:39.876Z,18.40
2022-07-26T03:10:07.630Z,18.30
2022-07-26T03:12:34.789Z,18.30
2022-07-26T03:15:01.517Z,18.30
2022-07-26T03:17:28.229Z,18.30
2022-07-26T03:19:54.971Z,18.40
2022-07-26T03:22:21.704Z,16.60
2022-07-26T03:24:48.410Z,18.50
2022-07-26T03:27:15.096Z,18.60
2022-07-26T03:29:41.879Z,18.60
2022-07-26T03:32:09.426Z,18.70
2022-07-26T03:34:36.230Z,18.70
2022-07-26T03:37:03.356Z,18.70
2022-07-26T03:39:30.144Z,18.90
2022-07-26T03:41:56.950Z,18.80
2022-07-26T03:44:23.652Z,18.90
2022-07-26T03:46:50.359Z,18.90
2022-07-26T03:49:17.488Z,19.00
2022-07-26T03:51:44.940Z,19.00
2022-07-26T03:54:11.951Z,19.00
2022-07-26T03:56:40.266Z,19.10
2022-07-26T03:59:09.670Z,19.10
2022-07-26T04:01:41.919Z,19.00
2022-07-26T04:04:09.783Z,16.80
2022-07-26T04:06:37.326Z,19.00
2022-07-26T04:09:06.133Z,18.90
2022-07-26T04:11:33.318Z,19.00
2022-07-26T04:14:00.771Z,19.00
2022-07-26T04:16:27.797Z,19.00
2022-07-26T04:18:55.003Z,19.00
2022-07-26T04:21:21.995Z,18.90
2022-07-26T04:23:51.269Z,19.00
2022-07-26T04:26:20.398Z,19.00
2022-07-26T04:28:47.616Z,19.00
2022-07-26T04:31:14.484Z,19.00
2022-07-26T04:33:41.437Z,18.90
2022-07-26T04:36:08.610Z,19.00
2022-07-26T04:38:35.317Z,19.00
2022-07-26T04:41:02.071Z,19.00
2022-07-26T04:43:28.878Z,19.10
2022-07-26T04:45:57.528Z,19.10
2022-07-26T04:48:25.577Z,19.10
2022-07-26T04:50:53.176Z,19.10
2022-07-26T04:53:20.502Z,19.00
2022-07-26T04:55:47.871Z,19.10
2022-07-26T04:58:14.722Z,19.10
2022-07-26T05:01:09.399Z,19.10
2022-07-26T05:03:28.561Z,19.20
2022-07-26T05:05:55.221Z,19.20
2022-07-26T05:08:21.934Z,19.30
2022-07-26T05:10:54.945Z,19.10
2022-07-26T05:13:23.109Z,19.20
2022-07-26T05:15:56.908Z,19.10
2022-07-26T05:18:23.613Z,19.10
2022-07-26T05:20:51.532Z,19.10
2022-07-26T05:23:19.871Z,19.20
2022-07-26T05:25:47.429Z,19.10
2022-07-26T05:28:14.463Z,19.10
2022-07-26T05:30:41.311Z,19.10
2022-07-26T05:33:08.073Z,19.10
2022-07-26T05:35:34.764Z,19.10
2022-07-26T05:38:01.696Z,19.10
2022-07-26T05:40:28.512Z,19.20
2022-07-26T05:42:55.237Z,19.10
2022-07-26T05:45:21.990Z,19.00
2022-07-26T05:47:52.489Z,19.10
2022-07-26T05:50:19.713Z,19.10
2022-07-26T05:52:46.410Z,19.10
2022-07-26T05:55:13.188Z,19.20
2022-07-26T05:57:47.287Z,19.20
2022-07-26T06:00:16.965Z,19.30
2022-07-26T06:02:43.850Z,19.30
2022-07-26T06:05:10.828Z,19.30
2022-07-26T06:07:38.769Z,19.30
2022-07-26T06:10:06.094Z,19.30
2022-07-26T06:12:32.807Z,19.30
2022-07-26T06:14:59.519Z,19.40
2022-07-26T06:17:30.049Z,19.40
2022-07-26T06:19:58.137Z,19.40
2022-07-26T06:22:24.911Z,19.50
2022-07-26T06:24:51.818Z,19.40
2022-07-26T06:27:18.538Z,19.40
2022-07-26T06:29:48.299Z,19.40
2022-07-26T06:32:15.202Z,19.30
2022-07-26T06:34:42.057Z,19.30
2022-07-26T06:37:08.749Z,19.30
2022-07-26T06:39:41.537Z,19.40
2022-07-26T06:42:08.272Z,19.30
2022-07-26T06:44:35.192Z,19.30
2022-07-26T06:47:01.900Z,19.40
2022-07-26T06:49:28.804Z,19.40
2022-07-26T06:51:57.807Z,19.60
2022-07-26T06:54:24.577Z,19.80
2022-07-26T06:56:51.336Z,19.90
2022-07-26T06:59:18.231Z,19.90
2022-07-26T07:01:57.460Z,19.90
2022-07-26T07:04:31.679Z,20.00
2022-07-26T07:07:04.546Z,20.00
2022-07-26T07:09:33.024Z,20.00
2022-07-26T07:12:05.397Z,20.10
2022-07-26T07:14:37.139Z,20.10
2022-07-26T07:17:03.936Z,20.10
2022-07-26T07:19:39.863Z,20.20
2022-07-26T07:22:11.731Z,20.30
2022-07-26T07:24:39.133Z,20.30
2022-07-26T07:27:05.974Z,20.30
2022-07-26T07:29:33.865Z,20.50
2022-07-26T07:32:03.361Z,20.70
2022-07-26T07:34:30.611Z,20.60
2022-07-26T07:36:57.717Z,20.50
2022-07-26T07:39:27.320Z,20.60
2022-07-26T07:42:01.873Z,20.80
2022-07-26T07:44:28.596Z,20.90
2022-07-26T07:46:55.474Z,20.90
2022-07-26T07:49:22.530Z,20.90
2022-07-26T07:51:49.428Z,20.70
2022-07-26T07:54:16.688Z,20.80
2022-07-26T07:56:43.858Z,20.90
2022-07-26T07:59:10.961Z,21.20
2022-07-26T08:01:40.486Z,21.50
2022-07-26T08:04:08.840Z,21.80
2022-07-26T08:06:55.988Z,22.00
2022-07-26T08:09:28.763Z,22.10
2022-07-26T08:11:55.748Z,22.00
2022-07-26T08:14:23.170Z,22.00
2022-07-26T08:16:50.201Z,21.90
2022-07-26T08:19:17.033Z,21.80
2022-07-26T08:21:45.991Z,21.80
2022-07-26T08:24:13.775Z,21.40
2022-07-26T08:26:40.520Z,21.30
2022-07-26T08:29:07.209Z,21.10
2022-07-26T08:31:33.964Z,20.80
2022-07-26T08:34:00.821Z,20.80
2022-07-26T08:36:32.327Z,20.70
2022-07-26T08:39:00.080Z,21.00
2022-07-26T08:41:26.858Z,21.30
2022-07-26T08:43:54.093Z,21.60
2022-07-26T08:46:25.996Z,21.90
2022-07-26T08:49:52.671Z,22.50
2022-07-26T08:56:38.883Z,22.60
2022-07-26T08:59:18.864Z,22.60
2022-07-26T09:01:54.242Z,22.60
2022-07-26T09:04:31.713Z,22.80
2022-07-26T09:07:21.614Z,23.00
2022-07-26T09:10:06.077Z,23.50
2022-07-26T09:12:33.606Z,23.70
2022-07-26T09:15:02.099Z,24.20
2022-07-26T09:17:43.243Z,24.50
2022-07-26T09:20:18.019Z,24.50
2022-07-26T09:23:02.880Z,24.50
2022-07-26T09:25:34.946Z,23.90
2022-07-26T09:28:02.591Z,24.70
2022-07-26T09:30:31.821Z,24.80
2022-07-26T09:33:05.884Z,25.40
2022-07-26T09:35:52.339Z,25.50
2022-07-26T09:38:19.505Z,25.20
2022-07-26T09:40:50.932Z,24.20
2022-07-26T09:43:19.769Z,24.20
2022-07-26T09:46:05.247Z,23.50
2022-07-26T09:48:46.161Z,23.10
2022-07-26T09:51:48.014Z,22.90
2022-07-26T09:54:31.308Z,22.60
2022-07-26T09:56:58.895Z,22.40
2022-07-26T09:59:27.094Z,22.00
2022-07-26T10:01:55.749Z,22.00
2022-07-26T10:04:22.820Z,22.00
2022-07-26T10:06:50.065Z,21.90
2022-07-26T10:09:23.259Z,21.80
2022-07-26T10:12:00.835Z,21.80
2022-07-26T10:14:33.396Z,21.80
2022-07-26T10:17:01.455Z,21.90
2022-07-26T10:19:45.692Z,21.70
2022-07-26T10:22:31.436Z,21.90
2022-07-26T10:25:18.162Z,22.10
2022-07-26T10:27:47.081Z,22.30
2022-07-26T10:30:20.138Z,22.40
2022-07-26T10:33:10.277Z,22.10
2022-07-26T10:35:40.884Z,22.00
2022-07-26T10:38:10.390Z,22.20
2022-07-26T10:40:38.683Z,22.60
2022-07-26T10:43:40.704Z,22.80
2022-07-26T10:46:20.335Z,22.90
2022-07-26T10:49:04.568Z,23.50
2022-07-26T10:51:40.124Z,23.90
2022-07-26T10:54:09.604Z,24.20
2022-07-26T10:56:37.685Z,24.50
2022-07-26T10:59:05.490Z,24.70
2022-07-26T11:01:35.998Z,24.90
2022-07-26T11:04:03.064Z,25.00
2022-07-26T11:06:30.377Z,25.50
2022-07-26T11:08:57.191Z,25.90
2022-07-26T11:11:31.764Z,26.30
2022-07-26T11:14:10.117Z,26.20
2022-07-26T11:16:42.194Z,26.40
2022-07-26T11:19:13.088Z,26.20
2022-07-26T11:21:41.234Z,25.90
2022-07-26T11:24:09.775Z,25.80
2022-07-26T11:26:43.927Z,25.30
2022-07-26T11:29:17.274Z,24.90
2022-07-26T11:31:51.965Z,24.50
2022-07-26T11:34:33.394Z,24.00
2022-07-26T11:37:04.089Z,23.90
2022-07-26T11:39:33.179Z,24.10
2022-07-26T11:42:01.272Z,24.30
2022-07-26T11:44:28.672Z,24.50
2022-07-26T11:46:57.762Z,24.40
2022-07-26T11:49:51.944Z,24.60
2022-07-26T11:52:13.155Z,24.40
2022-07-26T11:54:48.913Z,24.20
2022-07-26T11:57:16.624Z,23.90
2022-07-26T11:59:45.803Z,23.70
2022-07-26T12:02:13.465Z,23.40
2022-07-26T12:04:42.578Z,23.10
2022-07-26T12:07:15.443Z,22.90
2022-07-26T12:09:54.178Z,22.80
2022-07-26T12:12:23.375Z,22.80
2022-07-26T12:14:57.637Z,22.80
2022-07-26T12:17:24.729Z,22.80
2022-07-26T12:19:51.469Z,22.90
2022-07-26T12:22:22.931Z,22.80
2022-07-26T12:24:52.499Z,23.00
2022-07-26T12:27:22.198Z,23.10
2022-07-26T12:29:50.258Z,22.60
2022-07-26T12:32:19.317Z,23.40
2022-07-26T12:34:59.582Z,23.60
2022-07-26T12:37:39.305Z,23.70
2022-07-26T12:40:13.556Z,24.00
2022-07-26T12:42:58.692Z,24.20
2022-07-26T12:45:28.814Z,24.20
2022-07-26T12:47:57.117Z,24.20
2022-07-26T12:50:27.691Z,24.20
2022-07-26T12:53:08.939Z,24.30
2022-07-26T12:55:39.319Z,24.40
2022-07-26T12:58:06.048Z,24.50
2022-07-26T13:00:32.838Z,24.80
2022-07-26T13:02:59.599Z,25.20
2022-07-26T13:05:26.366Z,25.50
2022-07-26T13:07:53.330Z,25.20
2022-07-26T13:10:33.238Z,25.30
2022-07-26T13:13:01.549Z,25.20
2022-07-26T13:15:35.980Z,25.10
2022-07-26T13:18:06.268Z,24.90
2022-07-26T13:20:33.063Z,24.60
2022-07-26T13:22:59.819Z,24.60
2022-07-26T13:25:29.022Z,24.50
2022-07-26T13:28:00.186Z,24.50
2022-07-26T13:30:27.023Z,24.50
2022-07-26T13:32:53.809Z,24.30
2022-07-26T13:35:20.587Z,24.50
2022-07-26T13:37:47.413Z,24.70
2022-07-26T13:40:14.117Z,24.70
2022-07-26T13:42:40.875Z,25.00
2022-07-26T13:45:08.334Z,25.00
2022-07-26T13:47:35.043Z,24.80
2022-07-26T13:50:01.898Z,24.60
2022-07-26T13:52:29.079Z,24.60
2022-07-26T13:54:55.786Z,24.80
2022-07-26T13:57:22.495Z,24.90
2022-07-26T13:59:49.227Z,25.10
2022-07-26T14:02:16.075Z,25.10
2022-07-26T14:04:43.121Z,25.20
2022-07-26T14:07:09.803Z,24.70
2022-07-26T14:09:37.132Z,24.70
2022-07-26T14:12:04.104Z,24.60
2022-07-26T14:14:30.908Z,24.60
2022-07-26T14:16:57.645Z,24.70
2022-07-26T14:19:24.429Z,24.80
2022-07-26T14:21:59.528Z,24.70
2022-07-26T14:24:27.774Z,24.60
2022-07-26T14:26:58.875Z,26.20
2022-07-26T14:29:26.918Z,24.60
2022-07-26T14:31:53.836Z,24.50
2022-07-26T14:34:20.657Z,24.50
2022-07-26T14:36:47.399Z,24.50
2022-07-26T14:39:14.112Z,24.30
2022-07-26T14:41:40.968Z,24.30
2022-07-26T14:44:07.911Z,24.40
2022-07-26T14:46:34.929Z,24.50
2022-07-26T14:49:01.682Z,24.50
2022-07-26T14:51:28.652Z,24.30
2022-07-26T14:53:55.411Z,24.20
2022-07-26T14:56:22.294Z,24.20
2022-07-26T14:58:49.135Z,24.10
2022-07-26T15:01:16.634Z,24.10
2022-07-26T15:03:43.453Z,23.80
2022-07-26T15:06:10.321Z,23.80
2022-07-26T15:08:37.087Z,23.70
2022-07-26T15:11:05.476Z,23.40
2022-07-26T15:13:32.405Z,23.20
2022-07-26T15:15:59.196Z,22.90
2022-07-26T15:18:26.178Z,22.80
2022-07-26T15:20:53.336Z,22.80
2022-07-26T15:23:20.082Z,22.60
2022-07-26T15:25:48.563Z,22.50
2022-07-26T15:28:16.289Z,22.30
2022-07-26T15:30:43.286Z,22.10
2022-07-26T15:33:10.140Z,21.80
2022-07-26T15:35:37.137Z,21.60
2022-07-26T15:38:04.205Z,21.30
2022-07-26T15:40:30.995Z,21.20
2022-07-26T15:42:57.845Z,21.30
2022-07-26T15:45:25.234Z,21.30
2022-07-26T15:47:55.953Z,21.30
2022-07-26T15:50:26.412Z,21.30
2022-07-26T15:52:53.302Z,21.40
2022-07-26T15:55:20.532Z,21.50
2022-07-26T15:57:47.706Z,21.60
2022-07-26T16:00:15.481Z,21.70
2022-07-26T16:02:42.626Z,22.00
2022-07-26T16:05:10.443Z,22.30
2022-07-26T16:07:38.042Z,22.90
2022-07-26T16:10:05.292Z,22.90
2022-07-26T16:12:32.881Z,23.20
2022-07-26T16:14:59.687Z,23.30
2022-07-26T16:17:26.405Z,23.00
2022-07-26T16:19:53.393Z,23.00
2022-07-26T16:22:20.131Z,22.90
2022-07-26T16:24:46.861Z,22.80
2022-07-26T16:27:13.585Z,23.00
2022-07-26T16:29:40.366Z,23.20
2022-07-26T16:32:09.341Z,23.10
2022-07-26T16:34:36.525Z,23.00
2022-07-26T16:37:04.285Z,22.70
2022-07-26T16:39:31.121Z,22.50
2022-07-26T16:42:00.884Z,22.20
2022-07-26T16:44:30.043Z,20.50
2022-07-26T16:46:57.227Z,22.10
2022-07-26T16:49:24.199Z,22.30
2022-07-26T16:51:51.060Z,22.30
2022-07-26T16:54:17.832Z,22.30
2022-07-26T16:56:44.662Z,22.30
2022-07-26T16:59:11.809Z,22.10
2022-07-26T17:01:38.945Z,22.00
2022-07-26T17:04:05.911Z,21.90
2022-07-26T17:06:32.677Z,21.90
2022-07-26T17:08:59.417Z,21.90
2022-07-26T17:11:26.197Z,21.90
2022-07-26T17:13:53.458Z,22.00
2022-07-26T17:16:24.518Z,22.20
2022-07-26T17:18:52.636Z,22.30
2022-07-26T17:21:19.341Z,22.30
2022-07-26T17:23:46.106Z,22.20
2022-07-26T17:26:12.979Z,22.10
2022-07-26T17:28:39.744Z,22.10
2022-07-26T17:31:06.602Z,22.10
2022-07-26T17:33:33.313Z,22.10
2022-07-26T17:36:03.434Z,22.00
2022-07-26T17:38:33.634Z,21.70
2022-07-26T17:41:00.994Z,21.60
2022-07-26T17:43:36.741Z,21.50
2022-07-26T17:46:04.044Z,21.30
2022-07-26T17:48:30.925Z,21.10
2022-07-26T17:50:57.720Z,21.00
2022-07-26T17:53:34.327Z,21.00
2022-07-26T17:56:01.954Z,21.10
2022-07-26T17:58:28.669Z,21.10
2022-07-26T18:00:55.438Z,21.00
2022-07-26T18:03:23.169Z,21.10
2022-07-26T18:05:50.856Z,21.10
2022-07-26T18:08:17.688Z,21.10
2022-07-26T18:10:48.972Z,21.10
2022-07-26T18:13:17.841Z,21.00
2022-07-26T18:15:44.896Z,21.00
2022-07-26T18:18:11.720Z,20.90
2022-07-26T18:20:38.683Z,21.00
2022-07-26T18:23:05.893Z,21.10
2022-07-26T18:25:32.763Z,21.20
2022-07-26T18:28:03.369Z,21.10
2022-07-26T18:30:34.082Z,21.20
2022-07-26T18:33:01.203Z,21.20
2022-07-26T18:35:28.315Z,21.30
2022-07-26T18:37:55.223Z,21.20
2022-07-26T18:40:25.927Z,21.20
2022-07-26T18:42:52.923Z,21.10
2022-07-26T18:45:19.996Z,20.80
2022-07-26T18:47:46.821Z,20.80
2022-07-26T18:50:16.960Z,20.70
2022-07-26T18:52:44.813Z,20.60
2022-07-26T18:55:12.861Z,20.50
2022-07-26T18:57:41.674Z,20.40
2022-07-26T19:00:12.790Z,20.40
2022-07-26T19:02:39.669Z,20.30
2022-07-26T19:05:07.281Z,20.20
2022-07-26T19:07:34.154Z,20.10
2022-07-26T19:10:00.909Z,20.10
2022-07-26T19:12:28.292Z,20.10
2022-07-26T19:14:55.271Z,20.10
2022-07-26T19:17:22.563Z,20.10
2022-07-26T19:19:49.329Z,20.00
2022-07-26T19:22:16.040Z,19.90
2022-07-26T19:24:42.944Z,20.00
2022-07-26T19:27:09.753Z,19.90
2022-07-26T19:29:39.475Z,19.80
2022-07-26T19:32:06.771Z,19.80
2022-07-26T19:34:33.674Z,19.70
2022-07-26T19:37:00.514Z,19.70
2022-07-26T19:39:27.319Z,19.70
2022-07-26T19:41:54.036Z,19.80
2022-07-26T19:44:20.749Z,19.80
2022-07-26T19:46:47.547Z,19.80
2022-07-26T19:49:16.836Z,19.80
2022-07-26T19:51:44.220Z,19.70
2022-07-26T19:54:11.044Z,19.70
2022-07-26T19:56:39.922Z,19.70
2022-07-26T19:59:06.616Z,19.60
2022-07-26T20:01:33.444Z,19.50
2022-07-26T20:04:02.220Z,19.50
2022-07-26T20:06:29.036Z,19.40
2022-07-26T20:08:55.805Z,19.40
2022-07-26T20:11:24.734Z,19.30
2022-07-26T20:13:51.710Z,19.30
2022-07-26T20:16:18.576Z,19.30
2022-07-26T20:18:45.385Z,19.30
2022-07-26T20:21:12.099Z,19.40
2022-07-26T20:23:38.868Z,19.40
2022-07-26T20:26:05.833Z,19.40
2022-07-26T20:28:32.727Z,19.30
2022-07-26T20:30:59.490Z,19.30
2022-07-26T20:33:26.336Z,19.30
2022-07-26T20:35:55.303Z,19.30
2022-07-26T20:38:22.734Z,19.30
2022-07-26T20:40:49.568Z,19.30
2022-07-26T20:43:17.024Z,19.30
2022-07-26T20:45:44.336Z,19.30
2022-07-26T20:48:11.100Z,19.30
2022-07-26T20:50:38.484Z,19.30
2022-07-26T20:53:05.310Z,19.30
2022-07-26T20:55:32.189Z,19.30
2022-07-26T21:00:26.824Z,19.20
2022-07-26T21:02:53.950Z,19.20
2022-07-26T21:05:20.972Z,19.20
2022-07-26T21:07:58.345Z,19.20
2022-07-26T21:10:27.456Z,19.30
2022-07-26T21:12:57.107Z,19.10
2022-07-26T21:15:23.850Z,19.00
2022-07-26T21:17:52.337Z,19.00
2022-07-26T21:20:19.577Z,18.90
2022-07-26T21:22:46.337Z,19.00
2022-07-26T21:25:13.102Z,18.90
2022-07-26T21:27:39.843Z,18.90
2022-07-26T21:30:07.340Z,18.90
2022-07-26T21:32:34.066Z,18.90
2022-07-26T21:35:01.029Z,18.90
2022-07-26T21:37:27.796Z,18.90
2022-07-26T21:39:54.509Z,18.90
2022-07-26T21:42:21.219Z,18.90
2022-07-26T21:44:53.584Z,18.90
2022-07-26T21:47:20.308Z,18.90
2022-07-26T21:49:47.042Z,18.90
2022-07-26T21:52:13.774Z,18.80
2022-07-26T21:54:40.481Z,18.80
2022-07-26T21:57:07.552Z,18.90
2022-07-26T21:59:34.463Z,18.80
2022-07-26T22:02:01.448Z,18.80
2022-07-26T22:04:28.274Z,18.70
2022-07-26T22:06:54.958Z,18.70
2022-07-26T22:09:21.672Z,18.70
2022-07-26T22:11:48.426Z,18.60
2022-07-26T22:14:15.139Z,18.60
2022-07-26T22:16:44.449Z,18.70
2022-07-26T22:19:11.747Z,18.60
2022-07-26T22:21:39.664Z,18.60
2022-07-26T22:24:06.870Z,18.60
2022-07-26T22:26:33.707Z,18.60
2022-07-26T22:29:00.668Z,18.50
2022-07-26T22:31:27.444Z,18.50
2022-07-26T22:33:54.237Z,18.50
2022-07-26T22:36:21.926Z,18.50
2022-07-26T22:38:48.740Z,18.40
2022-07-26T22:41:15.535Z,18.40
2022-07-26T22:43:42.266Z,18.40
2022-07-26T22:46:09.142Z,18.30
2022-07-26T22:48:38.679Z,18.40
2022-07-26T22:51:06.144Z,18.30
2022-07-26T22:53:32.895Z,18.20
2022-07-26T22:55:59.747Z,18.20
2022-07-26T22:58:26.426Z,18.20
2022-07-26T23:00:54.139Z,18.20
2022-07-26T23:03:21.669Z,18.20
2022-07-26T23:05:49.730Z,18.10
2022-07-26T23:11:04.997Z,18.00
2022-07-26T23:13:31.840Z,18.00
2022-07-26T23:16:01.217Z,18.10
2022-07-26T23:18:29.737Z,17.90
2022-07-26T23:20:56.681Z,17.90
2022-07-26T23:23:25.385Z,17.90
2022-07-26T23:25:57.164Z,17.90
2022-07-26T23:28:36.231Z,17.90
2022-07-26T23:31:11.594Z,17.90
2022-07-26T23:33:51.441Z,17.90
2022-07-26T23:36:25.701Z,17.80
2022-07-26T23:38:53.859Z,17.90
2022-07-26T23:41:20.836Z,17.80
2022-07-26T23:43:47.657Z,17.80
2022-07-26T23:46:14.563Z,17.70
2022-07-26T23:48:41.501Z,17.70
2022-07-26T23:51:08.544Z,17.70
2022-07-26T23:53:35.485Z,17.60
2022-07-26T23:56:02.187Z,17.60
2022-07-26T23:58:29.231Z,17.60
